createdAt,value
2018-09-20T00:01:28.726Z,49.16
2018-09-20T00:03:56.678Z,47.98
2018-09-20T00:06:24.474Z,48.94
2018-09-20T00:08:52.192Z,48.81
2018-09-20T00:11:19.774Z,49.05
2018-09-20T00:13:47.589Z,48.80
2018-09-20T00:16:15.463Z,48.13
2018-09-20T00:18:43.355Z,49.07
2018-09-20T00:21:11.057Z,48.87
2018-09-20T00:23:38.753Z,48.43
2018-09-20T00:26:06.977Z,49.07
2018-09-20T00:28:34.762Z,48.95
2018-09-20T00:31:02.590Z,48.46
2018-09-20T00:33:30.311Z,48.42
2018-09-20T00:35:58.387Z,48.98
2018-09-20T00:38:26.072Z,48.71
2018-09-20T00:40:53.625Z,49.33
2018-09-20T00:43:21.306Z,48.63
2018-09-20T00:45:49.027Z,49.60
2018-09-20T00:48:16.901Z,49.54
2018-09-20T00:50:44.646Z,49.38
2018-09-20T00:53:12.529Z,49.58
2018-09-20T00:55:40.195Z,49.12
2018-09-20T00:58:07.983Z,49.50
2018-09-20T01:00:35.659Z,49.33
2018-09-20T01:03:03.502Z,50.02
2018-09-20T01:05:31.203Z,49.28
2018-09-20T01:09:03.906Z,49.92
2018-09-20T01:11:31.717Z,49.85
2018-09-20T01:13:59.585Z,49.38
2018-09-20T01:16:27.446Z,48.84
2018-09-20T01:20:50.219Z,49.55
2018-09-20T01:23:17.818Z,49.72
2018-09-20T01:25:45.605Z,49.38
2018-09-20T01:28:13.467Z,49.38
2018-09-20T01:30:41.193Z,49.61
2018-09-20T01:35:35.229Z,49.98
2018-09-20T01:38:02.970Z,49.48
2018-09-20T01:40:30.975Z,49.61
2018-09-20T01:42:58.929Z,49.52
2018-09-20T01:45:26.201Z,50.09
2018-09-20T01:47:53.778Z,50.58
2018-09-20T01:52:00.186Z,49.74
2018-09-20T01:54:28.035Z,50.48
2018-09-20T01:56:55.909Z,50.21
2018-09-20T01:59:23.737Z,50.33
2018-09-20T02:01:51.713Z,49.84
2018-09-20T02:04:19.586Z,49.43
2018-09-20T02:06:47.457Z,49.27
2018-09-20T02:09:15.195Z,50.01
2018-09-20T02:11:43.306Z,50.21
2018-09-20T02:14:11.013Z,50.17
2018-09-20T02:16:38.840Z,50.14
2018-09-20T02:19:06.775Z,50.48
2018-09-20T02:21:34.587Z,50.69
2018-09-20T02:24:02.557Z,50.69
2018-09-20T02:26:30.054Z,50.50
2018-09-20T02:28:57.874Z,50.42
2018-09-20T02:31:25.758Z,50.41
2018-09-20T02:33:53.605Z,50.42
2018-09-20T02:36:21.578Z,50.34
2018-09-20T02:38:49.588Z,49.95
2018-09-20T02:42:06.942Z,50.55
2018-09-20T02:44:34.786Z,50.98
2018-09-20T02:47:02.759Z,50.01
2018-09-20T02:49:30.587Z,49.98
2018-09-20T02:51:58.508Z,49.82
2018-09-20T02:54:26.240Z,49.74
2018-09-20T02:56:54.019Z,50.19
2018-09-20T02:59:22.267Z,50.84
2018-09-20T03:01:49.949Z,51.07
2018-09-20T03:04:17.581Z,51.32
2018-09-20T03:06:45.678Z,51.29
2018-09-20T03:09:13.655Z,51.24
2018-09-20T03:11:41.535Z,50.74
2018-09-20T03:14:09.650Z,50.20
2018-09-20T03:16:37.466Z,50.25
2018-09-20T03:19:06.036Z,51.11
2018-09-20T03:21:33.761Z,50.29
2018-09-20T03:24:01.646Z,50.41
2018-09-20T03:26:29.639Z,50.37
2018-09-20T03:28:57.565Z,50.96
2018-09-20T03:31:25.490Z,50.87
2018-09-20T03:33:52.713Z,50.24
2018-09-20T03:36:20.577Z,50.56
2018-09-20T03:38:48.561Z,50.41
2018-09-20T03:41:15.884Z,51.00
2018-09-20T03:43:43.665Z,51.24
2018-09-20T03:46:11.584Z,51.71
2018-09-20T03:48:39.310Z,51.12
2018-09-20T03:51:06.549Z,50.55
2018-09-20T03:53:34.301Z,50.45
2018-09-20T03:56:02.010Z,50.39
2018-09-20T03:58:29.870Z,51.58
2018-09-20T04:00:57.710Z,51.05
2018-09-20T04:03:25.558Z,50.54
2018-09-20T04:05:53.590Z,51.12
2018-09-20T04:08:21.546Z,51.22
2018-09-20T04:10:49.302Z,51.42
2018-09-20T04:13:17.181Z,50.78
2018-09-20T04:15:45.131Z,51.24
2018-09-20T04:18:12.992Z,51.25
2018-09-20T04:20:40.912Z,51.38
2018-09-20T04:23:08.699Z,51.98
2018-09-20T04:25:36.677Z,50.82
2018-09-20T04:28:04.505Z,51.52
2018-09-20T04:30:32.213Z,51.81
2018-09-20T04:33:00.067Z,51.95
2018-09-20T04:35:27.860Z,51.91
2018-09-20T04:37:55.690Z,52.04
2018-09-20T04:42:50.176Z,50.84
2018-09-20T04:45:17.751Z,51.64
2018-09-20T04:47:45.665Z,50.35
2018-09-20T04:50:12.986Z,49.63
2018-09-20T04:52:40.990Z,49.52
2018-09-20T04:55:08.790Z,49.27
2018-09-20T04:57:36.829Z,49.61
2018-09-20T05:00:04.842Z,49.38
2018-09-20T05:02:32.805Z,48.80
2018-09-20T05:05:00.670Z,48.96
2018-09-20T05:07:28.581Z,48.54
2018-09-20T05:09:56.406Z,49.02
2018-09-20T05:12:24.199Z,48.89
2018-09-20T05:14:51.563Z,48.79
2018-09-20T05:17:19.302Z,49.06
2018-09-20T05:19:47.051Z,48.46
2018-09-20T05:22:14.772Z,49.19
2018-09-20T05:24:42.590Z,49.13
2018-09-20T05:27:10.432Z,48.71
2018-09-20T05:29:38.001Z,49.07
2018-09-20T05:32:05.922Z,48.25
2018-09-20T05:34:34.521Z,49.01
2018-09-20T05:37:02.198Z,47.93
2018-09-20T05:39:29.853Z,48.78
2018-09-20T05:41:58.018Z,48.64
2018-09-20T05:44:25.874Z,48.46
2018-09-20T05:46:53.715Z,48.39
2018-09-20T05:49:21.579Z,48.87
2018-09-20T05:51:49.866Z,48.73
2018-09-20T05:54:17.785Z,48.34
2018-09-20T05:56:45.581Z,48.02
2018-09-20T05:59:13.554Z,48.00
2018-09-20T06:01:40.758Z,48.72
2018-09-20T06:04:08.737Z,48.79
2018-09-20T06:06:36.601Z,48.38
2018-09-20T06:09:06.687Z,48.74
2018-09-20T06:11:34.560Z,48.51
2018-09-20T06:14:02.401Z,47.86
2018-09-20T06:16:30.168Z,47.73
2018-09-20T06:18:57.579Z,48.19
2018-09-20T06:21:25.478Z,48.17
2018-09-20T06:23:53.184Z,47.92
2018-09-20T06:26:21.232Z,47.79
2018-09-20T06:28:48.949Z,48.44
2018-09-20T06:31:16.766Z,48.20
2018-09-20T06:33:44.581Z,48.09
2018-09-20T06:36:12.481Z,48.55
2018-09-20T06:38:40.390Z,47.71
2018-09-20T06:41:08.194Z,48.63
2018-09-20T06:43:35.983Z,47.72
2018-09-20T06:46:03.749Z,48.16
2018-09-20T06:48:31.615Z,48.00
2018-09-20T06:50:59.466Z,47.71
2018-09-20T06:53:27.200Z,48.46
2018-09-20T06:55:55.053Z,48.09
2018-09-20T06:58:22.716Z,47.77
2018-09-20T07:00:50.558Z,47.39
2018-09-20T07:05:55.278Z,47.46
2018-09-20T07:08:23.043Z,47.16
2018-09-20T07:10:50.409Z,47.46
2018-09-20T07:13:18.409Z,47.92
2018-09-20T07:15:46.178Z,47.84
2018-09-20T07:18:13.972Z,47.89
2018-09-20T07:20:41.925Z,47.70
2018-09-20T07:23:09.756Z,47.61
2018-09-20T07:25:37.758Z,47.07
2018-09-20T07:28:05.581Z,48.06
2018-09-20T07:30:33.309Z,47.29
2018-09-20T07:33:01.377Z,48.04
2018-09-20T07:35:29.059Z,47.77
2018-09-20T07:37:56.894Z,47.92
2018-09-20T07:40:24.950Z,47.67
2018-09-20T07:42:52.850Z,47.93
2018-09-20T07:45:20.758Z,47.35
2018-09-20T07:47:48.825Z,47.92
2018-09-20T07:50:16.694Z,47.87
2018-09-20T07:52:44.657Z,47.11
2018-09-20T07:55:12.445Z,47.22
2018-09-20T07:57:40.208Z,47.16
2018-09-20T08:00:08.044Z,47.44
2018-09-20T08:02:35.758Z,47.71
2018-09-20T08:05:03.007Z,47.31
2018-09-20T08:07:30.952Z,47.12
2018-09-20T08:09:58.300Z,47.42
2018-09-20T08:12:26.038Z,47.87
2018-09-20T08:14:53.770Z,47.08
2018-09-20T08:17:21.590Z,46.93
2018-09-20T08:19:50.377Z,47.05
2018-09-20T08:22:18.066Z,47.75
2018-09-20T08:24:45.765Z,47.78
2018-09-20T08:27:14.010Z,46.95
2018-09-20T08:29:41.881Z,48.36
2018-09-20T08:32:09.865Z,47.06
2018-09-20T08:34:37.659Z,47.20
2018-09-20T08:37:05.572Z,47.69
2018-09-20T08:39:33.309Z,47.06
2018-09-20T08:42:01.025Z,47.04
2018-09-20T08:44:28.748Z,46.64
2018-09-20T08:48:40.641Z,47.01
2018-09-20T08:51:08.622Z,47.02
2018-09-20T08:53:36.401Z,47.44
2018-09-20T08:56:03.807Z,46.73
2018-09-20T08:58:32.956Z,47.62
2018-09-20T09:01:02.808Z,46.75
2018-09-20T09:03:30.864Z,46.89
2018-09-20T09:05:58.734Z,46.71
2018-09-20T09:08:26.593Z,47.22
2018-09-20T09:10:54.227Z,47.34
2018-09-20T09:13:22.014Z,47.17
2018-09-20T09:15:49.204Z,46.90
2018-09-20T09:18:16.997Z,46.43
2018-09-20T09:20:44.807Z,46.71
2018-09-20T09:23:12.688Z,46.91
2018-09-20T09:25:40.538Z,47.15
2018-09-20T09:28:08.405Z,46.75
2018-09-20T09:30:36.029Z,46.50
2018-09-20T09:33:03.601Z,47.07
2018-09-20T09:35:31.334Z,47.27
2018-09-20T09:37:59.358Z,46.53
2018-09-20T09:40:28.222Z,46.49
2018-09-20T09:42:56.066Z,47.35
2018-09-20T09:45:24.586Z,46.43
2018-09-20T09:47:52.513Z,47.09
2018-09-20T09:50:20.205Z,47.28
2018-09-20T09:52:48.006Z,46.39
2018-09-20T09:55:15.187Z,46.71
2018-09-20T09:57:43.709Z,46.56
2018-09-20T10:00:11.562Z,46.49
2018-09-20T10:02:39.520Z,46.22
2018-09-20T10:05:07.602Z,46.98
2018-09-20T10:07:35.457Z,46.27
2018-09-20T10:10:03.195Z,46.96
2018-09-20T10:12:30.994Z,46.47
2018-09-20T10:14:58.893Z,46.58
2018-09-20T10:17:26.649Z,47.07
2018-09-20T10:19:54.584Z,47.03
2018-09-20T10:22:22.334Z,46.32
2018-09-20T10:24:50.003Z,46.62
2018-09-20T10:27:17.205Z,46.62
2018-09-20T10:29:44.929Z,46.83
2018-09-20T10:32:12.717Z,46.88
2018-09-20T10:34:40.534Z,46.93
2018-09-20T10:37:08.474Z,47.11
2018-09-20T10:39:36.198Z,46.16
2018-09-20T10:42:03.313Z,46.56
2018-09-20T10:44:31.002Z,46.80
2018-09-20T10:46:58.761Z,46.79
2018-09-20T10:49:26.587Z,46.23
2018-09-20T10:51:54.398Z,46.60
2018-09-20T10:54:22.201Z,46.94
2018-09-20T10:56:49.974Z,46.73
2018-09-20T10:59:17.806Z,46.46
2018-09-20T11:01:45.684Z,46.26
2018-09-20T11:04:13.479Z,46.73
2018-09-20T11:06:41.205Z,46.19
2018-09-20T11:09:09.686Z,46.46
2018-09-20T11:11:36.926Z,46.25
2018-09-20T11:14:05.014Z,46.61
2018-09-20T11:16:32.435Z,46.91
2018-09-20T11:19:00.206Z,45.97
2018-09-20T11:21:27.933Z,46.47
2018-09-20T11:23:55.657Z,46.15
2018-09-20T11:26:23.533Z,46.53
2018-09-20T11:28:51.207Z,46.38
2018-09-20T11:31:18.997Z,46.12
2018-09-20T11:33:46.207Z,46.37
2018-09-20T11:37:26.342Z,46.13
2018-09-20T11:39:54.047Z,46.77
2018-09-20T11:42:21.466Z,46.26
2018-09-20T11:44:49.200Z,46.30
2018-09-20T11:47:17.233Z,46.91
2018-09-20T11:49:45.031Z,46.20
2018-09-20T11:52:12.781Z,45.92
2018-09-20T11:54:40.585Z,46.17
2018-09-20T11:57:08.309Z,46.64
2018-09-20T11:59:35.962Z,46.33
2018-09-20T12:02:03.911Z,46.80
2018-09-20T12:04:31.750Z,46.71
2018-09-20T12:06:59.597Z,46.53
2018-09-20T12:09:27.142Z,46.55
2018-09-20T12:11:54.873Z,46.04
2018-09-20T12:14:22.349Z,47.17
2018-09-20T12:16:50.048Z,46.81
2018-09-20T12:19:17.817Z,46.20
2018-09-20T12:21:45.648Z,46.05
2018-09-20T12:24:13.542Z,47.13
2018-09-20T12:26:41.212Z,46.90
2018-09-20T12:29:08.964Z,47.21
2018-09-20T12:31:36.801Z,46.71
2018-09-20T12:34:04.709Z,46.74
2018-09-20T12:36:32.509Z,47.18
2018-09-20T12:39:00.180Z,47.16
2018-09-20T12:41:27.988Z,46.52
2018-09-20T12:43:55.205Z,46.57
2018-09-20T12:46:23.011Z,46.66
2018-09-20T12:48:50.682Z,46.56
2018-09-20T12:51:18.452Z,46.81
2018-09-20T12:53:46.615Z,46.66
2018-09-20T12:56:14.329Z,47.34
2018-09-20T12:58:46.378Z,47.25
2018-09-20T13:01:14.381Z,46.68
2018-09-20T13:03:42.108Z,46.62
2018-09-20T13:06:09.861Z,46.35
2018-09-20T13:08:37.650Z,46.45
2018-09-20T13:11:05.478Z,46.83
2018-09-20T13:13:32.706Z,46.36
2018-09-20T13:16:00.430Z,46.63
2018-09-20T13:18:28.877Z,47.07
2018-09-20T13:20:56.709Z,46.23
2018-09-20T13:23:24.586Z,47.17
2018-09-20T13:25:52.313Z,46.83
2018-09-20T13:28:20.023Z,46.92
2018-09-20T13:30:47.453Z,46.11
2018-09-20T13:33:15.196Z,46.48
2018-09-20T13:35:43.066Z,46.40
2018-09-20T13:38:10.885Z,46.73
2018-09-20T13:40:38.938Z,45.97
2018-09-20T13:43:06.741Z,46.89
2018-09-20T13:45:35.069Z,46.48
2018-09-20T13:48:02.336Z,46.69
2018-09-20T13:50:30.078Z,46.33
2018-09-20T13:52:57.868Z,46.24
2018-09-20T13:55:25.701Z,46.11
2018-09-20T13:57:53.486Z,46.76
2018-09-20T14:00:21.211Z,46.40
2018-09-20T14:02:49.222Z,45.97
2018-09-20T14:05:17.066Z,46.72
2018-09-20T14:07:44.855Z,46.33
2018-09-20T14:10:12.997Z,45.81
2018-09-20T14:12:44.602Z,45.86
2018-09-20T14:15:12.420Z,46.00
2018-09-20T14:17:40.180Z,46.70
2018-09-20T14:20:08.062Z,46.71
2018-09-20T14:22:35.458Z,45.96
2018-09-20T14:25:03.206Z,45.89
2018-09-20T14:27:30.935Z,46.48
2018-09-20T14:29:58.790Z,45.94
2018-09-20T14:32:26.623Z,46.06
2018-09-20T14:37:30.195Z,45.99
2018-09-20T14:39:57.990Z,45.82
2018-09-20T14:42:25.793Z,46.32
2018-09-20T14:44:53.607Z,46.09
2018-09-20T14:47:21.457Z,45.72
2018-09-20T14:49:48.623Z,46.68
2018-09-20T14:52:16.473Z,45.68
2018-09-20T14:54:44.403Z,46.55
2018-09-20T14:57:12.084Z,46.02
2018-09-20T14:59:39.772Z,45.95
2018-09-20T15:02:07.782Z,46.69
2018-09-20T15:04:35.626Z,45.94
2018-09-20T15:07:03.842Z,46.41
2018-09-20T15:09:31.641Z,45.80
2018-09-20T15:11:59.529Z,45.46
2018-09-20T15:14:27.645Z,46.19
2018-09-20T15:16:55.925Z,45.87
2018-09-20T15:19:23.690Z,46.69
2018-09-20T15:22:40.741Z,46.40
2018-09-20T15:25:08.699Z,46.11
2018-09-20T15:27:36.517Z,45.13
2018-09-20T15:30:05.480Z,46.03
2018-09-20T15:32:33.233Z,45.89
2018-09-20T15:35:00.926Z,45.55
2018-09-20T15:37:28.821Z,45.91
2018-09-20T15:39:56.709Z,45.51
2018-09-20T15:42:24.501Z,44.96
2018-09-20T15:44:52.208Z,44.85
2018-09-20T15:47:19.963Z,45.33
2018-09-20T15:49:47.739Z,45.19
2018-09-20T15:52:15.591Z,45.28
2018-09-20T15:54:43.313Z,46.04
2018-09-20T15:57:10.989Z,45.83
2018-09-20T15:59:38.779Z,45.73
2018-09-20T16:02:06.584Z,46.19
2018-09-20T16:04:34.462Z,45.14
2018-09-20T16:07:02.500Z,45.90
2018-09-20T16:09:30.193Z,45.14
2018-09-20T16:11:57.996Z,45.08
2018-09-20T16:14:25.805Z,45.40
2018-09-20T16:16:53.640Z,44.76
2018-09-20T16:19:21.522Z,44.94
2018-09-20T16:21:49.186Z,44.93
2018-09-20T16:24:16.528Z,45.17
2018-09-20T16:26:44.210Z,45.28
2018-09-20T16:29:44.662Z,46.03
2018-09-20T16:37:00.960Z,46.18
2018-09-20T16:39:29.661Z,45.91
2018-09-20T16:42:00.590Z,45.79
2018-09-20T16:44:28.409Z,46.37
2018-09-20T16:46:55.761Z,45.95
2018-09-20T16:49:23.573Z,45.58
2018-09-20T16:51:51.518Z,45.78
2018-09-20T16:54:19.195Z,45.86
2018-09-20T16:56:46.927Z,45.21
2018-09-20T16:59:15.609Z,45.74
2018-09-20T17:04:21.197Z,45.03
2018-09-20T17:06:49.416Z,46.08
2018-09-20T17:10:25.405Z,45.15
2018-09-20T17:12:53.196Z,46.24
2018-09-20T17:15:21.044Z,45.39
2018-09-20T17:17:50.618Z,46.22
2018-09-20T17:20:18.590Z,45.50
2018-09-20T17:22:46.562Z,46.03
2018-09-20T17:25:14.472Z,45.77
2018-09-20T17:27:42.381Z,46.37
2018-09-20T17:30:10.353Z,46.41
2018-09-20T17:32:38.318Z,45.88
2018-09-20T17:35:06.203Z,46.33
2018-09-20T17:37:36.581Z,45.53
2018-09-20T17:40:04.493Z,46.40
2018-09-20T17:42:32.894Z,45.73
2018-09-20T17:45:01.716Z,46.82
2018-09-20T17:47:29.648Z,46.97
2018-09-20T17:49:57.468Z,44.84
2018-09-20T17:52:26.234Z,45.93
2018-09-20T17:54:54.965Z,45.63
2018-09-20T17:57:24.428Z,46.37
2018-09-20T17:59:52.253Z,46.59
2018-09-20T18:02:20.028Z,45.72
2018-09-20T18:04:47.782Z,46.60
2018-09-20T18:07:16.224Z,45.74
2018-09-20T18:09:44.218Z,45.82
2018-09-20T18:12:12.305Z,45.96
2018-09-20T18:14:39.528Z,46.52
2018-09-20T18:17:07.462Z,45.74
2018-09-20T18:19:35.209Z,45.64
2018-09-20T18:22:02.978Z,44.70
2018-09-20T18:24:30.922Z,44.89
2018-09-20T18:26:58.930Z,44.49
2018-09-20T18:29:26.861Z,45.04
2018-09-20T18:31:54.830Z,45.28
2018-09-20T18:34:23.059Z,44.69
2018-09-20T18:36:50.932Z,45.05
2018-09-20T18:39:18.861Z,44.91
2018-09-20T18:41:46.880Z,45.24
2018-09-20T18:44:14.601Z,44.88
2018-09-20T18:46:42.509Z,44.93
2018-09-20T18:49:10.350Z,45.23
2018-09-20T18:51:38.060Z,45.09
2018-09-20T18:54:05.966Z,45.13
2018-09-20T18:56:33.802Z,44.89
2018-09-20T18:59:02.621Z,44.78
2018-09-20T19:01:30.494Z,45.02
2018-09-20T19:03:57.744Z,44.89
2018-09-20T19:06:25.862Z,44.95
2018-09-20T19:08:54.030Z,45.04
2018-09-20T19:11:22.370Z,44.01
2018-09-20T19:13:50.180Z,44.94
2018-09-20T19:16:17.947Z,44.74
2018-09-20T19:18:46.042Z,45.73
2018-09-20T19:21:13.500Z,45.28
2018-09-20T19:23:41.188Z,45.07
2018-09-20T19:26:08.800Z,45.19
2018-09-20T19:28:36.586Z,45.49
2018-09-20T19:31:04.493Z,44.90
2018-09-20T19:33:32.454Z,45.28
2018-09-20T19:36:00.297Z,45.29
2018-09-20T19:38:27.998Z,45.13
2018-09-20T19:40:55.914Z,45.16
2018-09-20T19:43:23.741Z,44.83
2018-09-20T19:45:51.565Z,44.04
2018-09-20T19:48:19.306Z,44.49
2018-09-20T19:50:46.541Z,45.53
2018-09-20T19:53:14.347Z,45.58
2018-09-20T19:55:42.032Z,45.64
2018-09-20T19:58:09.897Z,45.88
2018-09-20T20:00:37.721Z,45.75
2018-09-20T20:03:05.686Z,45.81
2018-09-20T20:05:33.623Z,44.97
2018-09-20T20:08:01.551Z,45.80
2018-09-20T20:10:29.209Z,45.53
2018-09-20T20:12:57.429Z,44.89
2018-09-20T20:15:25.192Z,45.74
2018-09-20T20:17:52.873Z,44.87
2018-09-20T20:20:20.802Z,45.69
2018-09-20T20:22:48.623Z,44.89
2018-09-20T20:25:16.549Z,44.85
2018-09-20T20:27:44.441Z,45.72
2018-09-20T20:30:11.705Z,45.67
2018-09-20T20:32:39.588Z,45.76
2018-09-20T20:35:07.369Z,45.02
2018-09-20T20:37:34.585Z,44.84
2018-09-20T20:40:02.426Z,45.79
2018-09-20T20:42:30.181Z,45.80
2018-09-20T20:44:58.039Z,45.13
2018-09-20T20:47:26.533Z,45.69
2018-09-20T20:49:54.198Z,45.12
2018-09-20T20:52:21.942Z,45.20
2018-09-20T20:54:49.557Z,45.31
2018-09-20T20:57:17.475Z,45.04
2018-09-20T20:59:45.417Z,44.86
2018-09-20T21:02:13.598Z,44.74
2018-09-20T21:04:41.393Z,44.63
2018-09-20T21:07:08.641Z,45.50
2018-09-20T21:09:36.547Z,44.95
2018-09-20T21:12:04.669Z,45.52
2018-09-20T21:14:32.680Z,45.82
2018-09-20T21:17:00.527Z,45.18
2018-09-20T21:19:28.469Z,46.35
2018-09-20T21:21:56.329Z,45.81
2018-09-20T21:24:24.186Z,44.39
2018-09-20T21:26:51.945Z,44.53
2018-09-20T21:29:19.748Z,44.34
2018-09-20T21:31:47.682Z,44.75
2018-09-20T21:34:15.689Z,44.08
2018-09-20T21:36:43.586Z,44.64
2018-09-20T21:39:12.175Z,45.01
2018-09-20T21:41:40.579Z,43.89
2018-09-20T21:44:08.869Z,44.30
2018-09-20T21:46:37.505Z,45.43
2018-09-20T21:49:05.531Z,45.14
2018-09-20T21:51:33.533Z,45.57
2018-09-20T21:54:01.239Z,45.47
2018-09-20T21:56:28.996Z,45.28
2018-09-20T21:58:56.429Z,45.21
2018-09-20T22:01:24.309Z,44.75
2018-09-20T22:03:52.062Z,45.25
2018-09-20T22:06:19.855Z,44.61
2018-09-20T22:08:47.725Z,45.61
2018-09-20T22:11:14.966Z,45.75
2018-09-20T22:16:02.720Z,45.38
2018-09-20T22:18:30.916Z,45.66
2018-09-20T22:20:58.753Z,45.24
2018-09-20T22:23:26.615Z,44.96
2018-09-20T22:25:54.401Z,45.11
2018-09-20T22:28:22.204Z,45.45
2018-09-20T22:30:50.325Z,44.92
2018-09-20T22:33:18.034Z,45.37
2018-09-20T22:35:46.190Z,45.84
2018-09-20T22:38:15.051Z,45.54
2018-09-20T22:40:43.046Z,46.04
2018-09-20T22:43:11.203Z,45.90
2018-09-20T22:45:39.119Z,45.88
2018-09-20T22:48:06.846Z,45.13
2018-09-20T22:50:34.506Z,45.83
2018-09-20T22:53:02.206Z,45.21
2018-09-20T22:55:29.930Z,45.63
2018-09-20T22:57:57.846Z,45.75
2018-09-20T23:00:25.797Z,46.07
2018-09-20T23:02:55.019Z,45.10
2018-09-20T23:05:22.506Z,45.72
2018-09-20T23:07:50.306Z,45.34
2018-09-20T23:10:18.172Z,45.77
2018-09-20T23:12:46.049Z,44.81
2018-09-20T23:15:13.894Z,46.08
2018-09-20T23:17:43.766Z,46.08
2018-09-20T23:20:46.246Z,46.14
2018-09-20T23:23:14.074Z,45.40
2018-09-20T23:25:42.004Z,45.72
2018-09-20T23:28:09.972Z,45.51
2018-09-20T23:30:37.807Z,45.54
2018-09-20T23:33:05.640Z,45.42
2018-09-20T23:35:33.537Z,46.02
2018-09-20T23:38:01.434Z,45.33
2018-09-20T23:40:29.191Z,46.13
2018-09-20T23:42:56.926Z,45.52
2018-09-20T23:45:24.701Z,46.29
2018-09-20T23:47:51.980Z,46.15
2018-09-20T23:50:19.990Z,45.29
2018-09-20T23:52:47.404Z,45.75
2018-09-20T23:55:15.401Z,45.71
2018-09-20T23:57:43.310Z,46.08
